Aérodrome :
LOGIN :

S'inscrire | Disclaimer

   EN    FR    IT 

 










Légende :    VFR   VFR Marginal   IFR   IFR Intensif   IFR Très Intensif
Visi : 
Plafond : 
>= 8 km
>= 3000ft
5 à 8 km
1000 à 3000 ft
1500m à 5 km
500 à 1000 ft
800 à 1500m
200 à 500 ft
< 800m
< 200 ft
Symboles :   Orages  Brouillard  Fortes neiges  Fortes précipitations  Vent > 20 kt
SIGMETs :   Divers  Orages  Givrage  Turbulence  Onde Orograph.  Cendres Volcan.







- Altitude de l'aérodrome : 423 ft
- Code IATA : PIS
- Voir les cartes d'approche


LFBI - Poitiers

DERNIER METAR :
  • 160800Z AUTO 36003KT 0350 R21/0550N FG VV/// 06/06 Q1023 BECMG 9999 NSW BKN004

METARs EXPIRÉS :
  • 160730Z AUTO 35003KT 0350 0300 R21/0400N FG VV/// 06/06 Q1022 BECMG 9999 NSW BKN004
  • 160700Z AUTO 02002KT 0350 0300 R21/0400N -RA FG VV/// 05/05 Q1022 NOSIG
  • 160630Z AUTO 32002KT 0650 0600 R21/0800U FG VV/// 05/05 Q1022 BECMG 0500 FG
  • 160600Z AUTO 33003KT 0550 0450 R21/0800N FG VV/// 05/05 Q1022 TEMPO 0200
  • 160530Z AUTO 36002KT 0700 0650 R21/0800N FG VV/// 06/05 Q1022 TEMPO 0200

TAF TAF LFBI
Valide du 16 à 06h jusqu'au 17 à 06h UTC


160500Z 1606/1706 06005KT 0500 FG VV///
TEMPO 1606/1608 0200
BECMG 1609/1611 9999 NSW BKN004
TEMPO 1613/1617 SCT005
PROB40 1620/1706 OVC002
Pas de NOTAMs connus pour ce terrain.



MET'MAP, la Météo Aéronautique d'un coup d'oeil ! - Copyright ORBIFLY Décembre 2007 - Disclaimer

ORBIFLY MET'MAP TEAM :

Programmation & Développement : Alexandra Zaïnal
Conception & Développement : Baudouin d'Aumeries
Co-Programmation & Développement : Marc-Olivier Méhu
Soutien technique & logistique : Manuel Goepfert

Contact : metmap@orbifly.com




SOURCES & CREDITS :

   NOAA